LTBJ/ADB METAR and TAF weather

Enter ICAO airport designator
Station Type Date Time Source
LTBJ METAR 2020/04/03 06:20 UTC NOAA

LTBJ 030620Z 33006KT 290V350 9999 SCT030 11/05 Q1016 NOSIG


Station Type Date Time Source
LTBJ Decoded METAR 2020/04/03 06:20 UTC NOAA

Izmir / Adnan Menderes, Turkey (LTBJ) 38-16N 027-09E 120M
Apr 03, 2020 - 02:20 AM EDT / 2020.04.03 0620 UTC
Wind: from the NNW (330 degrees) at 7 MPH (6 KT) (direction variable):0
Visibility: greater than 7 mile(s):0
Sky conditions: partly cloudy
Temperature: 51 F (11 C)
Dew Point: 41 F (5 C)
Relative Humidity: 66%
Pressure (altimeter): 30.00 in. Hg (1016 hPa)
ob: LTBJ 030620Z 33006KT 290V350 9999 SCT030 11/05 Q1016 NOSIG
cycle: 6

Station Type Date Time Source
LTBJ TAF 2020/04/03 06:03 UTC NOAA

TAF LTBJ 030440Z 0306/0406 VRB02KT 9999 SCT030
BECMG 0315/0318 CAVOK
BECMG 0318/0321 FEW030 BKN100

Example: see airport list